Time;durP1;ratioP1;P1;durP2;ratioP2;P2;SDS_P1;SDS_P2;PMS_P1;PMS_P2;Temp;Humidity;BMP_temperature;BMP_pressure;BME280_temperature;BME280_humidity;BME280_pressure;Samples;Min_cycle;Max_cycle;Signal;HPM_P1;HPM_P2
2022/11/27 00:01:46;;;;;;;15.80;6.85;;;;;;;4.86;100.00;102534.78;4993367;28;20489;-77
2022/11/27 00:04:11;;;;;;;16.90;7.47;;;;;;;4.81;100.00;102533.97;4993488;28;20049;-78
2022/11/27 00:06:39;;;;;;;18.73;7.57;;;;;;;4.57;100.00;102501.84;4993449;28;20050;-77
2022/11/27 00:09:07;;;;;;;19.05;7.38;;;;;;;4.54;100.00;102512.13;4993562;28;20072;-77
2022/11/27 00:11:33;;;;;;;18.40;6.63;;;;;;;4.58;100.00;102519.75;4993142;28;20038;-79
2022/11/27 00:13:59;;;;;;;15.85;6.90;;;;;;;4.61;100.00;102532.50;4993400;28;20018;-76
2022/11/27 00:16:26;;;;;;;17.25;7.60;;;;;;;4.52;100.00;102522.38;4992983;28;20038;-79
2022/11/27 00:18:51;;;;;;;17.80;7.07;;;;;;;4.50;100.00;102524.09;4993506;28;20109;-77
2022/11/27 00:21:22;;;;;;;18.42;7.05;;;;;;;4.44;100.00;102518.22;4993397;28;20498;-78
2022/11/27 00:23:49;;;;;;;19.67;8.90;;;;;;;4.39;100.00;102519.94;4993468;28;20450;-80
2022/11/27 00:26:15;;;;;;;21.55;8.50;;;;;;;4.27;100.00;102510.69;4976115;28;20030;-79
2022/11/27 00:28:40;;;;;;;19.58;8.73;;;;;;;4.30;100.00;102511.50;4993039;28;20466;-80
2022/11/27 00:31:11;;;;;;;25.88;11.65;;;;;;;4.28;100.00;102503.00;4995465;28;20033;-78
2022/11/27 00:33:37;;;;;;;30.45;16.67;;;;;;;4.25;100.00;102500.50;4996992;28;20069;-80
2022/11/27 00:36:04;;;;;;;19.45;8.10;;;;;;;4.09;100.00;102478.47;4997200;28;20066;-77
2022/11/27 00:38:29;;;;;;;22.25;10.57;;;;;;;4.18;100.00;102495.44;4996933;28;20080;-80
2022/11/27 00:41:03;;;;;;;18.42;6.53;;;;;;;4.16;100.00;102494.63;4979340;28;20046;-77
2022/11/27 00:43:28;;;;;;;24.70;8.85;;;;;;;4.13;100.00;102490.38;4978801;28;20034;-77
2022/11/27 00:45:54;;;;;;;24.30;8.90;;;;;;;4.10;100.00;102497.22;4996630;28;20540;-77
2022/11/27 00:48:19;;;;;;;19.13;7.40;;;;;;;3.90;100.00;102467.56;4996961;28;20062;-76
2022/11/27 00:50:44;;;;;;;19.70;7.93;;;;;;;4.05;100.00;102494.72;4996854;28;20056;-77
2022/11/27 00:53:10;;;;;;;16.73;7.18;;;;;;;4.03;100.00;102493.88;4979170;28;20093;-77
2022/11/27 00:55:35;;;;;;;17.80;7.78;;;;;;;3.98;100.00;102495.63;4996632;28;20027;-77
2022/11/27 00:58:00;;;;;;;23.25;7.93;;;;;;;3.77;100.00;102463.44;4996452;28;20053;-81
2022/11/27 01:00:25;;;;;;;21.02;8.13;;;;;;;3.78;100.00;102469.41;4996364;28;20398;-80
2022/11/27 01:02:51;;;;;;;17.67;8.20;;;;;;;3.85;100.00;102481.28;4996541;28;20076;-77
2022/11/27 01:05:16;;;;;;;22.50;8.18;;;;;;;3.86;100.00;102481.25;4979002;28;20049;-77
2022/11/27 01:07:41;;;;;;;18.52;7.07;;;;;;;3.84;100.00;102471.91;4996556;28;20394;-77
2022/11/27 01:10:07;;;;;;;17.25;7.05;;;;;;;3.74;100.00;102464.31;4996384;28;20023;-78
2022/11/27 01:12:33;;;;;;;22.48;9.60;;;;;;;3.80;100.00;102465.97;4996194;28;20038;-76
2022/11/27 01:14:58;;;;;;;19.65;8.32;;;;;;;3.73;100.00;102454.94;4996063;28;20046;-77
2022/11/27 01:17:23;;;;;;;19.63;8.57;;;;;;;3.62;100.00;102436.31;4996151;28;20023;-78
2022/11/27 01:19:48;;;;;;;19.10;8.00;;;;;;;3.74;100.00;102456.66;4996435;28;20045;-77
2022/11/27 01:22:14;;;;;;;22.83;8.43;;;;;;;3.72;100.00;102449.84;4996332;28;20488;-81
2022/11/27 01:24:39;;;;;;;25.98;8.93;;;;;;;3.65;100.00;102445.66;4996240;28;20046;-80
2022/11/27 01:27:04;;;;;;;22.92;8.25;;;;;;;3.67;100.00;102455.00;4996037;28;20101;-77
2022/11/27 01:29:30;;;;;;;22.33;8.32;;;;;;;3.56;100.00;102435.53;4995805;28;20102;-80
2022/11/27 01:31:55;;;;;;;21.00;8.45;;;;;;;3.54;100.00;102435.53;4995938;28;20026;-81
2022/11/27 01:34:20;;;;;;;22.02;9.30;;;;;;;3.56;100.00;102433.81;4995938;28;20513;-77
2022/11/27 01:36:46;;;;;;;20.27;9.70;;;;;;;3.72;100.00;102439.63;4978114;28;20054;-80
2022/11/27 01:39:17;;;;;;;22.25;9.40;;;;;;;3.69;100.00;102430.28;4995923;28;20054;-79
2022/11/27 01:41:43;;;;;;;;;;;;;;;3.77;100.00;102439.59;4995677;28;20061;-78
2022/11/27 01:44:23;;;;;;;21.45;9.23;;;;;;;3.78;100.00;102426.81;4995719;28;19913;-80
2022/11/27 01:46:55;;;;;;;17.60;8.80;;;;;;;3.74;100.00;102413.22;4995595;28;20027;-77
2022/11/27 01:49:36;;;;;;;21.50;8.82;;;;;;;3.79;100.00;102423.38;4995911;28;20105;-78
2022/11/27 01:52:06;;;;;;;;;;;;;;;3.91;100.00;102432.63;4996021;28;20113;-79
2022/11/27 01:54:46;;;;;;;22.25;9.38;;;;;;;3.94;100.00;102425.81;4978300;28;20270;-77
2022/11/27 01:57:23;;;;;;;22.50;8.60;;;;;;;3.98;100.00;102418.94;4995647;28;20037;-77
2022/11/27 01:59:51;;;;;;;22.17;10.10;;;;;;;3.92;100.00;102393.44;4995451;28;20026;-78
2022/11/27 02:02:16;;;;;;;19.45;8.80;;;;;;;4.03;100.00;102389.94;4995414;28;20081;-77
2022/11/27 02:04:42;;;;;;;18.52;8.20;;;;;;;4.05;100.00;102383.97;4995445;28;20039;-77
2022/11/27 02:07:08;;;;;;;19.30;8.13;;;;;;;4.02;100.00;102374.59;4995509;28;20490;-77
2022/11/27 02:09:33;;;;;;;17.63;8.20;;;;;;;3.87;100.00;102364.53;4995197;28;20022;-77
2022/11/27 02:12:03;;;;;;;25.50;10.10;;;;;;;3.94;100.00;102389.19;4995134;28;20476;-77
2022/11/27 02:14:38;;;;;;;21.75;8.93;;;;;;;3.78;100.00;102368.03;4995050;28;20057;-77
2022/11/27 02:17:20;;;;;;;21.08;8.50;;;;;;;3.49;100.00;102324.06;4995169;28;20026;-77
2022/11/27 02:20:04;;;;;;;;;;;;;;;3.72;100.00;102361.28;4978171;28;20493;-77
2022/11/27 02:22:44;;;;;;;19.95;7.78;;;;;;;3.64;100.00;102365.63;4994999;28;19921;-78
2022/11/27 02:25:29;;;;;;;16.10;8.30;;;;;;;3.48;100.00;102333.44;4994998;28;20034;-77
2022/11/27 02:28:06;;;;;;;17.95;7.45;;;;;;;3.53;100.00;102351.25;4994958;28;20112;-77
2022/11/27 02:30:40;;;;;;;17.90;7.63;;;;;;;3.38;100.00;102331.81;4994704;28;20540;-78
2022/11/27 02:33:10;;;;;;;19.20;7.75;;;;;;;3.34;100.00;102325.91;4994976;28;20057;-77
2022/11/27 02:35:43;;;;;;;18.27;7.40;;;;;;;3.44;100.00;102353.06;4994776;28;20027;-77
2022/11/27 02:38:22;;;;;;;22.27;7.45;;;;;;;3.28;100.00;102328.50;4994699;28;20022;-77
2022/11/27 02:40:56;;;;;;;24.70;8.05;;;;;;;3.40;100.00;102346.25;4994637;28;20394;-76
2022/11/27 02:43:28;;;;;;;19.40;7.75;;;;;;;3.32;100.00;102331.84;4994573;28;20034;-77
2022/11/27 02:45:56;;;;;;;22.48;9.07;;;;;;;3.27;100.00;102321.69;4994517;28;20018;-77
2022/11/27 02:48:28;;;;;;;21.65;8.65;;;;;;;3.37;100.00;102345.44;4994707;28;20030;-77
2022/11/27 02:50:54;;;;;;;17.45;8.05;;;;;;;3.35;100.00;102335.25;4994555;28;20026;-77
2022/11/27 02:53:24;;;;;;;21.00;8.75;;;;;;;3.04;100.00;102281.03;4993866;28;20035;-76
2022/11/27 02:55:52;;;;;;;21.70;8.63;;;;;;;3.29;100.00;102317.41;4994434;28;20085;-77
2022/11/27 02:58:22;;;;;;;24.15;8.02;;;;;;;3.52;100.00;102347.00;4994507;28;20114;-77
2022/11/27 03:00:49;;;;;;;16.88;8.00;;;;;;;3.55;100.00;102344.44;4994480;28;20045;-77
2022/11/27 03:03:18;;;;;;;18.85;7.75;;;;;;;3.59;100.00;102351.19;4994601;28;20058;-77
2022/11/27 03:05:48;;;;;;;17.40;7.40;;;;;;;3.62;100.00;102351.16;4994291;28;20033;-77
2022/11/27 03:08:24;;;;;;;19.48;7.68;;;;;;;3.67;100.00;102355.38;4994272;28;20451;-77
2022/11/27 03:11:00;;;;;;;14.13;7.15;;;;;;;3.74;100.00;102353.63;4994151;28;20025;-76
2022/11/27 03:13:27;;;;;;;19.63;7.28;;;;;;;3.63;100.00;102322.19;4994088;28;20026;-77
2022/11/27 03:15:58;;;;;;;17.67;7.22;;;;;;;3.85;100.00;102343.28;4994245;28;20042;-77
2022/11/27 03:18:33;;;;;;;20.60;7.32;;;;;;;3.83;100.00;102319.44;4994063;28;20528;-77
2022/11/27 03:21:08;;;;;;;16.83;8.02;;;;;;;3.73;100.00;102293.97;4994009;28;20034;-77
2022/11/27 03:23:33;;;;;;;14.65;7.43;;;;;;;3.94;100.00;102322.75;4994323;28;20090;-77
2022/11/27 03:25:58;;;;;;;19.85;6.90;;;;;;;3.96;100.00;102321.84;4994151;28;20547;-77
2022/11/27 03:28:25;;;;;;;22.83;7.63;;;;;;;3.98;100.00;102314.16;4993969;28;20030;-77
2022/11/27 03:30:51;;;;;;;18.40;7.65;;;;;;;3.94;100.00;102318.47;4993845;28;20364;-77
2022/11/27 03:33:17;;;;;;;18.48;7.53;;;;;;;3.98;100.00;102322.66;4993707;28;20041;-77
2022/11/27 03:35:42;;;;;;;15.40;6.78;;;;;;;3.95;100.00;102315.06;4994002;28;20030;-77
2022/11/27 03:38:07;;;;;;;16.80;6.97;;;;;;;4.01;100.00;102325.19;4993779;28;20487;-76
2022/11/27 03:40:53;;;;;;;16.30;7.25;;;;;;;3.72;100.00;102271.84;4993731;28;20069;-77
2022/11/27 03:43:26;;;;;;;14.57;6.82;;;;;;;4.03;100.00;102314.94;4993922;28;20096;-77
2022/11/27 03:46:09;;;;;;;14.48;6.70;;;;;;;3.91;100.00;102277.59;4993654;28;20037;-77
2022/11/27 03:48:47;;;;;;;18.98;7.00;;;;;;;4.01;100.00;102280.88;4993334;28;20533;-78
2022/11/27 03:51:43;;;;;;;15.30;6.47;;;;;;;4.11;100.00;102296.94;4993839;28;20038;-78
2022/11/27 03:54:40;;;;;;;17.33;7.05;;;;;;;4.10;100.00;102293.56;4915103;29;20448;-76
2022/11/27 03:57:11;;;;;;;18.05;6.93;;;;;;;4.11;100.00;102299.50;4914823;29;20032;-77
2022/11/27 03:59:41;;;;;;;15.30;6.35;;;;;;;4.08;100.00;102300.41;4914814;29;20412;-77
2022/11/27 04:02:12;;;;;;;16.55;6.93;;;;;;;4.04;100.00;102291.09;4914531;29;20055;-76
2022/11/27 04:04:38;;;;;;;15.23;6.75;;;;;;;3.98;100.00;102279.22;4917970;29;20044;-77
2022/11/27 04:07:03;;;;;;;16.38;7.28;;;;;;;4.01;100.00;102289.41;4918599;29;20032;-77
2022/11/27 04:09:28;;;;;;;14.23;5.95;;;;;;;4.10;100.00;102298.66;4918581;29;20136;-77
2022/11/27 04:11:53;;;;;;;17.27;6.65;;;;;;;3.98;100.00;102274.09;4918462;29;20044;-77
2022/11/27 04:14:19;;;;;;;14.40;6.38;;;;;;;3.94;100.00;102275.03;4918556;29;20405;-77
2022/11/27 04:16:44;;;;;;;15.60;6.18;;;;;;;4.00;100.00;102291.97;4918286;29;20035;-77
2022/11/27 04:19:09;;;;;;;13.80;6.75;;;;;;;4.14;100.00;102310.56;4918530;29;20083;-77
2022/11/27 04:21:35;;;;;;;16.58;5.70;;;;;;;4.11;100.00;102318.25;4918450;29;20073;-77
2022/11/27 04:24:00;;;;;;;15.35;5.72;;;;;;;4.16;100.00;102307.97;4918410;28;20551;-77
2022/11/27 04:26:25;;;;;;;15.02;5.70;;;;;;;4.15;100.00;102312.25;4918417;29;20214;-76
2022/11/27 04:28:51;;;;;;;16.92;6.30;;;;;;;4.18;100.00;102313.91;4918296;29;20413;-78
2022/11/27 04:31:16;;;;;;;15.23;5.97;;;;;;;4.18;100.00;102306.25;4966644;28;20042;-77
2022/11/27 04:33:41;;;;;;;14.98;6.47;;;;;;;4.18;100.00;102304.53;4997032;28;20521;-77
2022/11/27 04:36:07;;;;;;;13.45;5.45;;;;;;;3.93;100.00;102259.69;4997222;28;20018;-77
2022/11/27 04:38:32;;;;;;;13.95;5.80;;;;;;;4.05;100.00;102285.13;4997110;28;20109;-77
2022/11/27 04:40:57;;;;;;;11.52;5.50;;;;;;;4.16;100.00;102310.53;4979188;28;20038;-77
2022/11/27 04:43:26;;;;;;;14.63;6.00;;;;;;;4.15;100.00;102307.13;4979206;28;20041;-79
2022/11/27 04:45:51;;;;;;;12.13;5.78;;;;;;;4.17;100.00;102307.97;4997065;28;20054;-77
2022/11/27 04:48:16;;;;;;;15.80;6.13;;;;;;;4.12;100.00;102303.75;4996850;28;20085;-78
2022/11/27 04:50:41;;;;;;;10.32;5.00;;;;;;;4.13;100.00;102296.09;4996895;28;20045;-77
2022/11/27 04:53:07;;;;;;;16.08;5.78;;;;;;;4.13;100.00;102285.88;4996806;28;20041;-77
2022/11/27 04:55:34;;;;;;;15.68;5.88;;;;;;;4.02;100.00;102254.47;4996785;28;20117;-77
2022/11/27 04:57:59;;;;;;;13.43;5.40;;;;;;;4.02;100.00;102257.00;4996443;28;20054;-77
2022/11/27 05:00:24;;;;;;;11.88;5.30;;;;;;;4.10;100.00;102265.44;4996935;28;20077;-77
2022/11/27 05:02:50;;;;;;;14.32;5.60;;;;;;;4.07;100.00;102265.47;4996309;28;20026;-77
2022/11/27 05:05:16;;;;;;;17.63;6.03;;;;;;;4.07;100.00;102264.63;4996742;28;20030;-78
2022/11/27 05:07:41;;;;;;;12.65;5.47;;;;;;;4.06;100.00;102268.06;4996615;28;20032;-77
2022/11/27 05:10:07;;;;;;;13.73;5.32;;;;;;;4.06;100.00;102266.34;4996656;28;20058;-78
2022/11/27 05:12:32;;;;;;;14.98;5.32;;;;;;;3.88;100.00;102225.69;4996147;28;20037;-77
2022/11/27 05:14:58;;;;;;;12.02;5.25;;;;;;;3.93;100.00;102223.91;4978250;28;20438;-77
2022/11/27 05:17:23;;;;;;;10.27;4.80;;;;;;;4.05;100.00;102248.47;4996270;28;20381;-78
2022/11/27 05:19:48;;;;;;;15.63;5.15;;;;;;;4.15;100.00;102256.00;4996310;28;20109;-77
2022/11/27 05:22:14;;;;;;;12.90;5.10;;;;;;;4.17;100.00;102243.19;4996181;28;20034;-78
2022/11/27 05:24:39;;;;;;;14.82;5.72;;;;;;;3.93;100.00;102201.78;4996269;28;20022;-77
2022/11/27 05:27:04;;;;;;;14.20;5.00;;;;;;;4.05;100.00;102217.81;4978655;28;20539;-77
2022/11/27 05:29:30;;;;;;;9.70;4.70;;;;;;;4.22;100.00;102242.25;4996016;28;20022;-77
2022/11/27 05:31:55;;;;;;;13.35;4.63;;;;;;;4.24;100.00;102232.88;4996000;28;20533;-78
2022/11/27 05:34:20;;;;;;;13.70;5.30;;;;;;;4.24;100.00;102229.47;4995827;28;20080;-78
2022/11/27 05:36:46;;;;;;;14.73;5.70;;;;;;;4.26;100.00;102231.13;4996077;28;20030;-78
2022/11/27 05:39:11;;;;;;;11.38;5.43;;;;;;;4.22;100.00;102213.28;4995944;28;20394;-77
2022/11/27 05:41:39;;;;;;;15.43;5.25;;;;;;;4.20;100.00;102210.75;4995645;28;20096;-78
2022/11/27 05:44:05;;;;;;;13.18;5.25;;;;;;;4.31;100.00;102231.06;4995706;28;20470;-77
2022/11/27 05:46:31;;;;;;;12.43;5.15;;;;;;;4.33;100.00;102224.22;4996036;28;20106;-78
2022/11/27 05:48:56;;;;;;;11.85;5.65;;;;;;;4.34;100.00;102231.03;4995637;28;20030;-77
2022/11/27 05:51:21;;;;;;;14.10;4.95;;;;;;;4.28;100.00;102218.31;4995726;28;20034;-78
2022/11/27 05:53:47;;;;;;;14.82;5.63;;;;;;;4.30;100.00;102217.41;4995537;28;20061;-78
2022/11/27 05:56:15;;;;;;;11.65;5.07;;;;;;;4.23;100.00;102204.78;4995668;28;20067;-77
2022/11/27 05:58:42;;;;;;;10.75;5.32;;;;;;;4.36;100.00;102213.94;4995559;28;20053;-78
2022/11/27 06:01:09;;;;;;;13.00;5.15;;;;;;;4.37;100.00;102214.78;4995739;28;20026;-77
2022/11/27 06:03:35;;;;;;;12.88;5.30;;;;;;;4.38;100.00;102207.09;4995299;28;20031;-78
2022/11/27 06:06:15;;;;;;;14.18;5.47;;;;;;;4.42;100.00;102205.31;4995630;28;20033;-77
2022/11/27 06:08:41;;;;;;;12.77;5.05;;;;;;;4.34;100.00;102192.66;4995301;28;20030;-78
2022/11/27 06:11:18;;;;;;;12.90;5.63;;;;;;;4.34;100.00;102184.16;4995394;28;20061;-77
2022/11/27 06:13:45;;;;;;;12.45;5.05;;;;;;;4.43;100.00;102199.34;4995223;28;20371;-77
2022/11/27 06:16:16;;;;;;;12.68;5.47;;;;;;;4.42;100.00;102205.31;4995482;28;20022;-78
2022/11/27 06:18:42;;;;;;;17.15;5.68;;;;;;;4.44;100.00;102201.88;4995139;28;20041;-78
2022/11/27 06:21:12;;;;;;;11.50;5.07;;;;;;;4.46;100.00;102204.41;4977429;28;20038;-77
2022/11/27 06:23:38;;;;;;;10.75;4.90;;;;;;;4.42;100.00;102197.63;4995063;28;20061;-78
2022/11/27 06:26:18;;;;;;;12.10;5.20;;;;;;;4.31;100.00;102172.22;4994713;28;20530;-76
2022/11/27 06:28:44;;;;;;;13.73;5.47;;;;;;;4.46;100.00;102189.91;4994676;28;20113;-77
2022/11/27 06:31:13;;;;;;;14.50;6.53;;;;;;;4.44;100.00;102189.09;4995011;28;20018;-79
2022/11/27 06:33:39;;;;;;;10.27;4.95;;;;;;;4.48;100.00;102187.31;4994814;28;20034;-78
2022/11/27 06:36:05;;;;;;;12.85;5.22;;;;;;;4.43;100.00;102187.41;4994803;28;20088;-79
2022/11/27 06:38:32;;;;;;;10.45;5.20;;;;;;;4.32;100.00;102167.09;4994943;28;20533;-80
2022/11/27 06:41:12;;;;;;;11.15;4.80;;;;;;;4.48;100.00;102190.72;4994712;28;20066;-80
2022/11/27 06:43:37;;;;;;;11.52;5.32;;;;;;;4.53;100.00;102195.78;4994794;28;20037;-79
2022/11/27 06:46:04;;;;;;;15.23;5.07;;;;;;;4.53;100.00;102200.91;4994935;28;20113;-80
2022/11/27 06:48:39;;;;;;;11.35;5.18;;;;;;;4.53;100.00;102206.03;5152478;27;20402;-80
2022/11/27 06:51:06;;;;;;;9.65;5.55;;;;;;;4.52;100.00;102189.81;5150643;27;20023;-80
2022/11/27 06:53:36;;;;;;;12.32;5.47;;;;;;;4.53;100.00;102186.41;5151980;27;20023;-77
2022/11/27 06:56:06;;;;;;;13.68;4.88;;;;;;;4.45;100.00;102169.47;5152252;27;20027;-77
2022/11/27 06:58:32;;;;;;;14.50;6.30;;;;;;;4.47;100.00;102165.19;5152233;27;20031;-78
2022/11/27 07:00:59;;;;;;;15.75;6.20;;;;;;;4.54;100.00;102174.44;5152256;27;20026;-79
2022/11/27 07:03:25;;;;;;;12.68;6.00;;;;;;;4.52;100.00;102169.38;5152060;27;20478;-78
2022/11/27 07:05:50;;;;;;;11.98;4.80;;;;;;;4.37;100.00;102141.47;5152012;27;20060;-77
2022/11/27 07:08:15;;;;;;;11.95;5.35;;;;;;;4.29;100.00;102126.22;5150570;27;20462;-78
2022/11/27 07:10:43;;;;;;;12.68;5.15;;;;;;;3.76;100.00;102034.22;5151971;27;20106;-77
2022/11/27 07:13:09;;;;;;;12.35;5.53;;;;;;;4.47;100.00;102143.00;5152205;27;20026;-79
2022/11/27 07:15:34;;;;;;;13.18;5.28;;;;;;;4.19;100.00;102080.38;5151939;27;20080;-78
2022/11/27 07:18:03;;;;;;;15.25;5.15;;;;;;;4.55;100.00;102140.31;5151478;27;20110;-78
2022/11/27 07:20:32;;;;;;;13.38;5.63;;;;;;;3.63;100.00;101985.03;5151624;27;20490;-78
2022/11/27 07:22:57;;;;;;;13.95;5.72;;;;;;;4.60;100.00;102141.06;5151597;27;20052;-78
2022/11/27 07:25:25;;;;;;;13.57;5.50;;;;;;;3.70;100.00;101997.69;5151619;27;20072;-77
2022/11/27 07:27:50;;;;;;;11.20;5.60;;;;;;;4.60;100.00;102134.25;5151547;27;20529;-79
2022/11/27 07:30:16;;;;;;;14.10;5.55;;;;;;;4.33;100.00;102098.91;5151592;27;20098;-78
2022/11/27 07:32:42;;;;;;;10.85;5.20;;;;;;;4.59;100.00;102130.00;5151450;27;20027;-79
2022/11/27 07:35:08;;;;;;;13.88;5.30;;;;;;;4.43;100.00;102110.69;5151240;27;20094;-79
2022/11/27 07:37:33;;;;;;;14.93;5.55;;;;;;;4.61;100.00;102127.41;5151329;27;20441;-79
2022/11/27 07:39:58;;;;;;;13.80;5.80;;;;;;;4.61;100.00;102124.84;5151117;27;20023;-79
2022/11/27 07:42:24;;;;;;;13.07;6.72;;;;;;;4.34;100.00;102085.25;5151424;27;20110;-79
2022/11/27 07:44:50;;;;;;;13.23;5.78;;;;;;;4.52;100.00;102109.66;5151390;27;20034;-79
2022/11/27 07:47:15;;;;;;;13.90;5.80;;;;;;;4.03;100.00;102023.53;5150842;27;20051;-80
2022/11/27 07:49:41;;;;;;;13.38;6.05;;;;;;;4.51;100.00;102100.28;5151338;27;20029;-78
2022/11/27 07:52:06;;;;;;;12.70;6.10;;;;;;;4.56;100.00;102098.53;5150890;27;20483;-79
2022/11/27 07:54:33;;;;;;;14.93;6.80;;;;;;;4.35;100.00;102056.25;5151070;27;20501;-80
2022/11/27 07:56:58;;;;;;;15.52;6.93;;;;;;;4.69;100.00;102104.25;5149883;27;20031;-80
2022/11/27 07:59:23;;;;;;;13.25;6.38;;;;;;;3.81;100.00;101950.69;5139526;27;20031;-80
2022/11/27 08:01:54;;;;;;;17.58;7.53;;;;;;;4.09;100.00;101985.13;5137050;27;20035;-79
2022/11/27 08:04:20;;;;;;;17.55;7.18;;;;;;;4.47;100.00;102040.69;5137117;27;20020;-79
2022/11/27 08:06:47;;;;;;;15.38;7.07;;;;;;;4.75;100.00;102073.44;5136795;27;20046;-75
2022/11/27 08:09:13;;;;;;;15.18;7.22;;;;;;;4.76;100.00;102077.69;5137108;27;20027;-77
2022/11/27 08:11:39;;;;;;;18.92;7.13;;;;;;;4.77;100.00;102075.09;5137164;27;20092;-75
2022/11/27 08:14:06;;;;;;;17.80;7.68;;;;;;;4.71;100.00;102069.25;5136450;27;20031;-78
2022/11/27 08:16:33;;;;;;;17.45;6.97;;;;;;;4.81;100.00;102075.88;5136934;27;20118;-76
2022/11/27 08:18:58;;;;;;;17.77;7.57;;;;;;;4.80;100.00;102085.25;5136874;27;20595;-77
2022/11/27 08:21:24;;;;;;;16.95;7.57;;;;;;;4.83;100.00;102084.38;5135294;27;20048;-76
2022/11/27 08:23:50;;;;;;;15.75;7.88;;;;;;;4.59;100.00;102035.34;5136712;27;20481;-77
2022/11/27 08:26:15;;;;;;;16.40;8.30;;;;;;;4.84;100.00;102068.16;5136565;27;20027;-78
2022/11/27 08:28:41;;;;;;;16.58;7.40;;;;;;;4.89;100.00;102074.00;5136441;27;20023;-77
2022/11/27 08:31:09;;;;;;;19.48;8.77;;;;;;;4.92;100.00;102078.22;5136534;27;20031;-78
2022/11/27 08:33:35;;;;;;;16.60;8.45;;;;;;;4.90;100.00;102073.97;5135214;27;20031;-78
2022/11/27 08:36:01;;;;;;;18.80;8.13;;;;;;;4.93;100.00;102079.94;5136589;27;20124;-80
2022/11/27 08:38:27;;;;;;;16.35;7.97;;;;;;;4.86;100.00;102062.13;5136183;27;20027;-79
2022/11/27 08:41:03;;;;;;;18.30;8.05;;;;;;;4.98;100.00;102085.78;5136316;27;20126;-78
2022/11/27 08:43:30;;;;;;;21.42;9.02;;;;;;;4.77;100.00;102039.25;5136205;27;20038;-79
2022/11/27 08:45:56;;;;;;;18.42;7.97;;;;;;;4.94;100.00;102072.22;5136224;27;20019;-77
2022/11/27 08:48:23;;;;;;;17.20;7.63;;;;;;;5.04;100.00;102071.16;5136075;27;20047;-79
2022/11/27 08:50:50;;;;;;;13.63;7.65;;;;;;;5.07;100.00;102070.25;5136137;27;20023;-79
2022/11/27 08:53:16;;;;;;;18.42;8.38;;;;;;;5.08;100.00;102067.66;5135870;27;20023;-80
2022/11/27 08:55:42;;;;;;;15.63;7.70;;;;;;;4.86;100.00;102036.53;5136042;27;20049;-80
2022/11/27 08:58:08;;;;;;;17.15;8.98;;;;;;;5.12;100.00;102083.81;5135940;27;20027;-75
2022/11/27 09:00:34;;;;;;;14.90;8.48;;;;;;;5.04;100.00;102068.59;5135872;27;20046;-79
2022/11/27 09:03:00;;;;;;;13.82;8.13;;;;;;;5.16;100.00;102088.84;5135792;27;20019;-80
2022/11/27 09:05:26;;;;;;;17.23;8.95;;;;;;;5.02;100.00;102057.56;5135938;27;20035;-79
2022/11/27 09:07:52;;;;;;;18.17;8.27;;;;;;;5.21;100.00;102087.88;5135413;27;20029;-79
2022/11/27 09:10:18;;;;;;;15.27;8.70;;;;;;;5.19;100.00;102072.56;5134750;27;20106;-79
2022/11/27 09:12:44;;;;;;;19.83;9.55;;;;;;;5.29;100.00;102081.72;5135877;27;20019;-78
2022/11/27 09:15:10;;;;;;;17.30;8.60;;;;;;;5.22;100.00;102069.94;5135888;27;20026;-78
2022/11/27 09:17:36;;;;;;;18.38;8.90;;;;;;;5.14;100.00;102048.78;5135875;27;20398;-79
2022/11/27 09:20:01;;;;;;;19.33;9.07;;;;;;;5.30;100.00;102070.59;5135680;27;20019;-80
2022/11/27 09:22:27;;;;;;;17.08;9.48;;;;;;;5.24;100.00;102052.81;5135244;27;20478;-78
2022/11/27 09:24:52;;;;;;;16.38;9.10;;;;;;;5.29;100.00;102056.13;5135380;27;20424;-79
2022/11/27 09:27:17;;;;;;;17.88;9.40;;;;;;;5.45;100.00;102080.53;5135382;27;20115;-78
2022/11/27 09:29:43;;;;;;;16.52;9.50;;;;;;;5.26;100.00;102034.88;5135430;27;20064;-79
2022/11/27 09:32:08;;;;;;;23.10;10.57;;;;;;;5.29;100.00;102045.88;5135432;27;20102;-79
2022/11/27 09:34:33;;;;;;;17.48;9.55;;;;;;;5.32;100.00;102045.81;5133673;27;20122;-79
2022/11/27 09:36:58;;;;;;;15.32;8.75;;;;;;;5.41;100.00;102057.59;5135196;27;20102;-81
2022/11/27 09:39:28;;;;;;;18.33;9.48;;;;;;;5.55;100.00;102077.78;5118635;27;20027;-78
2022/11/27 09:41:57;;;;;;;16.65;9.30;;;;;;;5.55;100.00;102064.97;5114836;28;20030;-78
2022/11/27 09:44:41;;;;;;;16.63;9.38;;;;;;;5.46;100.00;102054.03;5114447;28;20030;-79
2022/11/27 09:47:37;;;;;;;20.85;9.93;;;;;;;5.60;100.00;102078.50;5114225;28;20047;-77
2022/11/27 09:50:05;;;;;;;18.00;8.35;;;;;;;5.60;100.00;102066.53;5113207;28;20030;-80
2022/11/27 09:52:38;;;;;;;18.52;9.20;;;;;;;5.68;100.00;102072.34;5114093;28;20102;-80
2022/11/27 09:55:15;;;;;;;13.32;8.50;;;;;;;5.74;100.00;102063.69;5114408;28;20019;-80
2022/11/27 09:57:45;;;;;;;16.33;9.02;;;;;;;5.53;100.00;102015.47;5114304;28;20039;-80
2022/11/27 10:00:17;;;;;;;18.33;8.93;;;;;;;5.78;100.00;102046.50;5113085;28;20478;-80
2022/11/27 10:02:43;;;;;;;19.80;9.38;;;;;;;5.81;100.00;102047.28;5114220;28;20076;-80
2022/11/27 10:05:17;;;;;;;16.75;8.43;;;;;;;5.76;100.00;102037.13;5114158;28;20115;-78
2022/11/27 10:08:01;;;;;;;17.42;9.15;;;;;;;5.86;100.00;102036.91;5113775;28;20486;-78
2022/11/27 10:11:22;;;;;;;17.13;9.30;;;;;;;5.91;100.00;102033.41;5114192;28;20031;-78
2022/11/27 10:14:01;;;;;;;18.70;8.30;;;;;;;5.60;100.00;101976.84;4953393;29;20063;-80
2022/11/27 10:16:38;;;;;;;17.17;9.63;;;;;;;5.93;100.00;102018.81;4953494;28;20036;-79
2022/11/27 10:19:22;;;;;;;17.23;8.80;;;;;;;5.99;100.00;102021.22;4953235;29;20035;-80
2022/11/27 10:21:55;;;;;;;17.52;8.98;;;;;;;6.03;100.00;102015.16;4952850;28;20391;-80
2022/11/27 10:24:35;;;;;;;20.30;9.35;;;;;;;6.00;100.00;101988.75;4952898;29;20035;-80
2022/11/27 10:27:07;;;;;;;15.20;9.40;;;;;;;6.16;100.00;102009.69;4952971;29;20031;-79
2022/11/27 10:29:46;;;;;;;20.75;9.45;;;;;;;6.20;100.00;102004.47;4953394;29;20039;-80
2022/11/27 10:32:16;;;;;;;17.80;9.38;;;;;;;6.15;100.00;101972.09;4953145;29;20035;-80
2022/11/27 10:34:48;;;;;;;16.30;9.35;;;;;;;5.61;100.00;101883.75;4953143;29;20055;-80
2022/11/27 10:37:24;;;;;;;18.40;9.85;;;;;;;6.20;100.00;101971.13;4953002;29;20181;-80
2022/11/27 10:40:02;;;;;;;16.30;8.90;;;;;;;5.68;100.00;101879.28;4952809;29;20066;-81
2022/11/27 10:42:55;;;;;;;17.83;9.57;;;;;;;6.35;100.00;101984.41;4952914;29;20529;-80
2022/11/27 10:45:44;;;;;;;15.68;8.98;;;;;;;6.34;100.00;101975.88;4953120;29;20487;-80
2022/11/27 10:48:11;;;;;;;20.00;9.98;;;;;;;6.06;100.00;101927.03;4968705;28;20033;-80
2022/11/27 10:50:37;;;;;;;19.67;9.82;;;;;;;6.39;100.00;101976.59;5086065;28;20032;-81
2022/11/27 10:53:07;;;;;;;17.50;9.32;;;;;;;5.76;100.00;101864.56;5134016;28;20091;-80
2022/11/27 10:55:47;;;;;;;17.13;9.73;;;;;;;6.38;100.00;101972.31;5133988;28;20030;-78
2022/11/27 10:58:23;;;;;;;17.27;10.20;;;;;;;6.25;100.00;101942.78;5134120;28;20067;-81
2022/11/27 11:01:01;;;;;;;17.70;9.70;;;;;;;5.77;100.00;101863.69;5134065;27;20027;-79
2022/11/27 11:03:26;;;;;;;18.83;9.40;;;;;;;6.33;100.00;101963.94;5133806;28;20076;-79
2022/11/27 11:06:04;;;;;;;17.30;10.02;;;;;;;6.31;100.00;101961.41;5133930;28;20408;-81
2022/11/27 11:08:32;;;;;;;16.45;9.23;;;;;;;6.06;100.00;101915.94;5133936;27;20023;-79
2022/11/27 11:11:07;;;;;;;16.88;9.60;;;;;;;6.34;100.00;101952.78;5133937;28;20027;-80
2022/11/27 11:13:39;;;;;;;19.77;10.68;;;;;;;6.34;100.00;101952.78;5133937;28;20030;-80
2022/11/27 11:16:10;;;;;;;17.95;9.95;;;;;;;6.38;100.00;101944.09;5133809;27;20031;-79
2022/11/27 11:18:45;;;;;;;15.13;10.02;;;;;;;6.38;100.00;101941.53;5132813;28;20027;-79
2022/11/27 11:21:39;;;;;;;18.38;9.52;;;;;;;5.65;100.00;101816.16;5133973;27;20034;-79
2022/11/27 11:24:27;;;;;;;16.08;9.65;;;;;;;6.38;100.00;101931.28;5133662;27;20031;-80
2022/11/27 11:27:13;;;;;;;16.85;10.10;;;;;;;6.38;100.00;101921.00;5133659;27;20428;-80